sensor_id;sensor_type;location;lat;lon;timestamp;P1;durP1;ratioP1;P2;durP2;ratioP2
1090;SDS011;534;48.704;9.122;2023-02-28T04:02:49;3.70;;;2.37;;
1090;SDS011;534;48.704;9.122;2023-02-28T04:05:17;2.87;;;2.37;;
1090;SDS011;534;48.704;9.122;2023-02-28T04:07:45;3.20;;;2.20;;
1090;SDS011;534;48.704;9.122;2023-02-28T04:10:11;4.30;;;2.63;;
1090;SDS011;534;48.704;9.122;2023-02-28T04:12:38;2.83;;;2.13;;
1090;SDS011;534;48.704;9.122;2023-02-28T04:15:06;3.57;;;2.47;;
1090;SDS011;534;48.704;9.122;2023-02-28T04:17:33;3.47;;;2.03;;
1090;SDS011;534;48.704;9.122;2023-02-28T04:20:01;4.87;;;3.00;;
1090;SDS011;534;48.704;9.122;2023-02-28T04:22:34;3.67;;;2.50;;
1090;SDS011;534;48.704;9.122;2023-02-28T04:25:01;3.40;;;2.83;;
1090;SDS011;534;48.704;9.122;2023-02-28T04:27:28;3.27;;;2.50;;
1090;SDS011;534;48.704;9.122;2023-02-28T04:29:54;3.50;;;2.60;;
1090;SDS011;534;48.704;9.122;2023-02-28T04:32:21;4.40;;;2.73;;
1090;SDS011;534;48.704;9.122;2023-02-28T04:34:48;3.23;;;2.73;;
1090;SDS011;534;48.704;9.122;2023-02-28T04:37:16;3.53;;;2.57;;
1090;SDS011;534;48.704;9.122;2023-02-28T04:39:43;4.07;;;3.00;;
1090;SDS011;534;48.704;9.122;2023-02-28T04:42:09;3.20;;;2.57;;
1090;SDS011;534;48.704;9.122;2023-02-28T04:44:36;3.43;;;2.80;;
1090;SDS011;534;48.704;9.122;2023-02-28T04:47:03;3.30;;;2.73;;
1090;SDS011;534;48.704;9.122;2023-02-28T04:49:30;3.20;;;2.47;;
1090;SDS011;534;48.704;9.122;2023-02-28T04:51:56;3.53;;;2.70;;
1090;SDS011;534;48.704;9.122;2023-02-28T04:54:24;3.17;;;2.43;;
1090;SDS011;534;48.704;9.122;2023-02-28T04:56:51;2.90;;;2.50;;
1090;SDS011;534;48.704;9.122;2023-02-28T04:59:18;3.30;;;2.37;;
1090;SDS011;534;48.704;9.122;2023-02-28T05:01:45;3.50;;;2.57;;
1090;SDS011;534;48.704;9.122;2023-02-28T05:04:13;2.80;;;2.50;;
1090;SDS011;534;48.704;9.122;2023-02-28T05:06:40;3.10;;;2.80;;
1090;SDS011;534;48.704;9.122;2023-02-28T05:09:07;3.90;;;3.23;;
1090;SDS011;534;48.704;9.122;2023-02-28T05:11:35;3.13;;;2.83;;
1090;SDS011;534;48.704;9.122;2023-02-28T05:14:04;3.83;;;3.00;;
1090;SDS011;534;48.704;9.122;2023-02-28T05:16:32;3.10;;;2.53;;
1090;SDS011;534;48.704;9.122;2023-02-28T05:18:59;3.20;;;2.27;;
1090;SDS011;534;48.704;9.122;2023-02-28T05:21:27;3.97;;;3.57;;
1090;SDS011;534;48.704;9.122;2023-02-28T05:23:55;3.10;;;2.80;;
1090;SDS011;534;48.704;9.122;2023-02-28T05:26:24;3.23;;;2.50;;
1090;SDS011;534;48.704;9.122;2023-02-28T05:28:53;4.23;;;2.73;;
1090;SDS011;534;48.704;9.122;2023-02-28T05:31:19;3.70;;;3.10;;
1090;SDS011;534;48.704;9.122;2023-02-28T05:33:46;3.90;;;2.87;;
1090;SDS011;534;48.704;9.122;2023-02-28T05:36:13;3.60;;;2.80;;
1090;SDS011;534;48.704;9.122;2023-02-28T05:38:40;3.50;;;2.93;;
1090;SDS011;534;48.704;9.122;2023-02-28T05:41:07;3.43;;;3.07;;
1090;SDS011;534;48.704;9.122;2023-02-28T05:43:34;3.40;;;3.10;;
1090;SDS011;534;48.704;9.122;2023-02-28T05:46:03;3.67;;;2.70;;
1090;SDS011;534;48.704;9.122;2023-02-28T05:48:31;6.50;;;3.27;;
1090;SDS011;534;48.704;9.122;2023-02-28T05:50:58;4.40;;;3.40;;
1090;SDS011;534;48.704;9.122;2023-02-28T05:53:25;4.20;;;3.10;;
1090;SDS011;534;48.704;9.122;2023-02-28T05:55:52;3.73;;;3.13;;
1090;SDS011;534;48.704;9.122;2023-02-28T05:58:18;3.87;;;3.20;;
1090;SDS011;534;48.704;9.122;2023-02-28T06:00:45;4.10;;;3.40;;
1090;SDS011;534;48.704;9.122;2023-02-28T06:03:13;3.47;;;3.10;;
1090;SDS011;534;48.704;9.122;2023-02-28T06:05:41;3.47;;;3.10;;
1090;SDS011;534;48.704;9.122;2023-02-28T06:08:07;5.37;;;3.27;;
1090;SDS011;534;48.704;9.122;2023-02-28T06:10:34;4.50;;;3.60;;
1090;SDS011;534;48.704;9.122;2023-02-28T06:13:01;3.87;;;3.17;;
1090;SDS011;534;48.704;9.122;2023-02-28T06:15:28;3.70;;;3.40;;
1090;SDS011;534;48.704;9.122;2023-02-28T06:17:56;4.00;;;3.10;;
1090;SDS011;534;48.704;9.122;2023-02-28T06:20:24;3.80;;;3.13;;
1090;SDS011;534;48.704;9.122;2023-02-28T06:22:54;3.80;;;3.40;;
1090;SDS011;534;48.704;9.122;2023-02-28T06:25:21;4.20;;;3.30;;
1090;SDS011;534;48.704;9.122;2023-02-28T06:27:48;5.93;;;3.60;;
1090;SDS011;534;48.704;9.122;2023-02-28T06:30:14;5.17;;;4.13;;
1090;SDS011;534;48.704;9.122;2023-02-28T06:32:41;4.83;;;3.80;;
1090;SDS011;534;48.704;9.122;2023-02-28T06:35:08;3.90;;;3.20;;
1090;SDS011;534;48.704;9.122;2023-02-28T06:37:36;3.40;;;3.00;;
1090;SDS011;534;48.704;9.122;2023-02-28T06:40:03;4.00;;;3.57;;
1090;SDS011;534;48.704;9.122;2023-02-28T06:42:31;5.07;;;3.50;;
1090;SDS011;534;48.704;9.122;2023-02-28T06:44:58;5.00;;;4.00;;
1090;SDS011;534;48.704;9.122;2023-02-28T06:47:25;3.50;;;3.20;;
1090;SDS011;534;48.704;9.122;2023-02-28T06:49:51;4.00;;;2.70;;
1090;SDS011;534;48.704;9.122;2023-02-28T06:52:18;3.83;;;3.43;;
1090;SDS011;534;48.704;9.122;2023-02-28T06:54:48;4.97;;;3.00;;
1090;SDS011;534;48.704;9.122;2023-02-28T06:57:24;3.87;;;3.47;;
1090;SDS011;534;48.704;9.122;2023-02-28T06:59:51;3.90;;;3.50;;
1090;SDS011;534;48.704;9.122;2023-02-28T07:02:17;3.70;;;3.23;;
1090;SDS011;534;48.704;9.122;2023-02-28T07:04:44;4.40;;;4.00;;
1090;SDS011;534;48.704;9.122;2023-02-28T07:07:11;3.83;;;3.43;;
1090;SDS011;534;48.704;9.122;2023-02-28T07:09:37;4.43;;;3.80;;
1090;SDS011;534;48.704;9.122;2023-02-28T07:12:05;4.27;;;3.87;;
1090;SDS011;534;48.704;9.122;2023-02-28T07:14:32;3.67;;;3.37;;
1090;SDS011;534;48.704;9.122;2023-02-28T07:16:59;4.63;;;3.90;;
1090;SDS011;534;48.704;9.122;2023-02-28T07:19:26;4.73;;;4.10;;
1090;SDS011;534;48.704;9.122;2023-02-28T07:21:53;4.73;;;3.80;;
1090;SDS011;534;48.704;9.122;2023-02-28T07:24:19;4.50;;;3.73;;
1090;SDS011;534;48.704;9.122;2023-02-28T07:26:48;4.57;;;3.90;;
1090;SDS011;534;48.704;9.122;2023-02-28T07:29:16;3.80;;;3.33;;
1090;SDS011;534;48.704;9.122;2023-02-28T07:31:43;3.77;;;3.47;;
1090;SDS011;534;48.704;9.122;2023-02-28T07:34:11;5.00;;;4.50;;
1090;SDS011;534;48.704;9.122;2023-02-28T07:36:38;4.73;;;4.23;;
1090;SDS011;534;48.704;9.122;2023-02-28T07:39:05;4.60;;;4.13;;
1090;SDS011;534;48.704;9.122;2023-02-28T07:41:34;4.20;;;3.80;;
1090;SDS011;534;48.704;9.122;2023-02-28T07:44:04;4.50;;;3.80;;
1090;SDS011;534;48.704;9.122;2023-02-28T07:46:32;4.87;;;4.27;;
1090;SDS011;534;48.704;9.122;2023-02-28T07:49:00;4.50;;;4.00;;
1090;SDS011;534;48.704;9.122;2023-02-28T07:51:28;4.90;;;4.10;;
1090;SDS011;534;48.704;9.122;2023-02-28T07:53:55;5.00;;;3.97;;
1090;SDS011;534;48.704;9.122;2023-02-28T07:56:21;3.90;;;3.50;;
1090;SDS011;534;48.704;9.122;2023-02-28T07:58:48;4.30;;;3.90;;
1090;SDS011;534;48.704;9.122;2023-02-28T08:01:15;4.23;;;3.83;;
1090;SDS011;534;48.704;9.122;2023-02-28T08:03:45;5.77;;;4.23;;
1090;SDS011;534;48.704;9.122;2023-02-28T08:06:15;5.17;;;4.67;;
1090;SDS011;534;48.704;9.122;2023-02-28T08:08:43;5.40;;;4.90;;
1090;SDS011;534;48.704;9.122;2023-02-28T08:11:09;5.20;;;4.70;;
1090;SDS011;534;48.704;9.122;2023-02-28T08:13:36;4.80;;;4.20;;
1090;SDS011;534;48.704;9.122;2023-02-28T08:16:03;4.50;;;4.10;;
1090;SDS011;534;48.704;9.122;2023-02-28T08:18:30;5.17;;;4.50;;
1090;SDS011;534;48.704;9.122;2023-02-28T08:21:04;4.77;;;3.73;;
1090;SDS011;534;48.704;9.122;2023-02-28T08:23:32;5.30;;;4.00;;
1090;SDS011;534;48.704;9.122;2023-02-28T08:26:00;4.97;;;4.20;;
1090;SDS011;534;48.704;9.122;2023-02-28T08:28:27;4.30;;;3.60;;
1090;SDS011;534;48.704;9.122;2023-02-28T08:30:53;4.20;;;3.80;;
1090;SDS011;534;48.704;9.122;2023-02-28T08:33:20;5.37;;;4.80;;
1090;SDS011;534;48.704;9.122;2023-02-28T08:35:47;5.40;;;4.90;;
1090;SDS011;534;48.704;9.122;2023-02-28T08:38:15;5.43;;;4.93;;
1090;SDS011;534;48.704;9.122;2023-02-28T08:40:42;5.27;;;4.30;;
1090;SDS011;534;48.704;9.122;2023-02-28T08:43:09;5.30;;;4.80;;
1090;SDS011;534;48.704;9.122;2023-02-28T08:45:35;4.93;;;4.33;;
1090;SDS011;534;48.704;9.122;2023-02-28T08:48:02;5.70;;;4.20;;
1090;SDS011;534;48.704;9.122;2023-02-28T08:50:29;5.47;;;4.93;;
1090;SDS011;534;48.704;9.122;2023-02-28T08:52:56;4.80;;;3.90;;
1090;SDS011;534;48.704;9.122;2023-02-28T08:55:24;4.63;;;4.20;;
1090;SDS011;534;48.704;9.122;2023-02-28T08:57:51;5.70;;;5.20;;
1090;SDS011;534;48.704;9.122;2023-02-28T09:00:20;5.73;;;4.90;;
1090;SDS011;534;48.704;9.122;2023-02-28T09:02:47;5.80;;;4.60;;
1090;SDS011;534;48.704;9.122;2023-02-28T09:05:14;4.50;;;4.10;;
1090;SDS011;534;48.704;9.122;2023-02-28T09:07:41;5.13;;;4.63;;
1090;SDS011;534;48.704;9.122;2023-02-28T09:10:08;5.77;;;4.83;;
1090;SDS011;534;48.704;9.122;2023-02-28T09:12:37;5.40;;;4.57;;
1090;SDS011;534;48.704;9.122;2023-02-28T09:15:04;6.00;;;4.90;;
1090;SDS011;534;48.704;9.122;2023-02-28T09:17:32;5.77;;;4.20;;
1090;SDS011;534;48.704;9.122;2023-02-28T09:19:58;4.83;;;4.33;;
1090;SDS011;534;48.704;9.122;2023-02-28T09:22:25;4.73;;;4.33;;
1090;SDS011;534;48.704;9.122;2023-02-28T09:24:51;5.00;;;4.50;;
1090;SDS011;534;48.704;9.122;2023-02-28T09:27:18;4.43;;;4.03;;
1090;SDS011;534;48.704;9.122;2023-02-28T09:29:46;4.80;;;3.90;;
1090;SDS011;534;48.704;9.122;2023-02-28T09:32:14;4.63;;;4.13;;
1090;SDS011;534;48.704;9.122;2023-02-28T09:34:42;5.07;;;4.60;;
1090;SDS011;534;48.704;9.122;2023-02-28T09:37:09;4.70;;;4.20;;
1090;SDS011;534;48.704;9.122;2023-02-28T09:39:35;5.80;;;4.67;;
1090;SDS011;534;48.704;9.122;2023-02-28T09:42:02;5.70;;;5.10;;
1090;SDS011;534;48.704;9.122;2023-02-28T09:44:30;5.47;;;4.97;;
1090;SDS011;534;48.704;9.122;2023-02-28T09:47:04;5.20;;;4.70;;
1090;SDS011;534;48.704;9.122;2023-02-28T09:49:38;4.73;;;4.33;;
1090;SDS011;534;48.704;9.122;2023-02-28T09:52:09;5.40;;;4.87;;
1090;SDS011;534;48.704;9.122;2023-02-28T09:54:39;5.50;;;4.97;;
1090;SDS011;534;48.704;9.122;2023-02-28T09:57:07;4.77;;;4.13;;
1090;SDS011;534;48.704;9.122;2023-02-28T09:59:43;5.37;;;4.87;;
1090;SDS011;534;48.704;9.122;2023-02-28T10:02:38;4.90;;;4.40;;
1090;SDS011;534;48.704;9.122;2023-02-28T10:05:15;5.80;;;5.23;;
1090;SDS011;534;48.704;9.122;2023-02-28T10:07:48;6.20;;;5.60;;
1090;SDS011;534;48.704;9.122;2023-02-28T10:10:25;4.80;;;4.30;;
1090;SDS011;534;48.704;9.122;2023-02-28T10:12:55;5.73;;;5.23;;
1090;SDS011;534;48.704;9.122;2023-02-28T10:15:24;5.30;;;4.80;;
1090;SDS011;534;48.704;9.122;2023-02-28T10:17:56;5.43;;;4.93;;
1090;SDS011;534;48.704;9.122;2023-02-28T10:20:26;4.80;;;4.40;;
1090;SDS011;534;48.704;9.122;2023-02-28T10:22:57;5.43;;;4.93;;
1090;SDS011;534;48.704;9.122;2023-02-28T10:25:33;5.40;;;4.90;;
1090;SDS011;534;48.704;9.122;2023-02-28T10:28:04;7.13;;;5.00;;
1090;SDS011;534;48.704;9.122;2023-02-28T10:30:36;5.47;;;4.97;;
1090;SDS011;534;48.704;9.122;2023-02-28T10:33:08;5.00;;;4.50;;
1090;SDS011;534;48.704;9.122;2023-02-28T10:35:44;4.17;;;3.63;;
1090;SDS011;534;48.704;9.122;2023-02-28T10:38:15;6.53;;;5.93;;
1090;SDS011;534;48.704;9.122;2023-02-28T10:40:43;4.80;;;4.23;;
1090;SDS011;534;48.704;9.122;2023-02-28T10:43:17;4.73;;;4.27;;
1090;SDS011;534;48.704;9.122;2023-02-28T10:45:55;4.87;;;4.37;;
1090;SDS011;534;48.704;9.122;2023-02-28T10:48:30;5.17;;;4.63;;
1090;SDS011;534;48.704;9.122;2023-02-28T10:51:00;6.47;;;5.77;;
1090;SDS011;534;48.704;9.122;2023-02-28T10:53:31;5.67;;;5.17;;
1090;SDS011;534;48.704;9.122;2023-02-28T10:56:00;5.40;;;4.90;;
1090;SDS011;534;48.704;9.122;2023-02-28T10:58:29;4.97;;;4.50;;
1090;SDS011;534;48.704;9.122;2023-02-28T11:00:58;5.23;;;4.70;;
1090;SDS011;534;48.704;9.122;2023-02-28T11:03:31;5.83;;;4.93;;
1090;SDS011;534;48.704;9.122;2023-02-28T11:06:03;4.73;;;4.30;;
1090;SDS011;534;48.704;9.122;2023-02-28T11:08:32;5.30;;;4.80;;
1090;SDS011;534;48.704;9.122;2023-02-28T11:11:01;5.17;;;4.70;;
1090;SDS011;534;48.704;9.122;2023-02-28T11:13:32;5.83;;;5.33;;
1090;SDS011;534;48.704;9.122;2023-02-28T11:16:00;5.70;;;5.20;;
1090;SDS011;534;48.704;9.122;2023-02-28T11:18:33;5.53;;;5.03;;
1090;SDS011;534;48.704;9.122;2023-02-28T11:21:05;4.67;;;4.27;;
1090;SDS011;534;48.704;9.122;2023-02-28T11:23:32;4.83;;;4.30;;
1090;SDS011;534;48.704;9.122;2023-02-28T11:26:02;5.33;;;4.83;;
1090;SDS011;534;48.704;9.122;2023-02-28T11:28:35;5.10;;;4.40;;
1090;SDS011;534;48.704;9.122;2023-02-28T11:31:04;4.60;;;4.17;;
1090;SDS011;534;48.704;9.122;2023-02-28T11:33:46;5.87;;;5.23;;
1090;SDS011;534;48.704;9.122;2023-02-28T11:36:16;5.33;;;4.80;;
1090;SDS011;534;48.704;9.122;2023-02-28T11:38:45;5.20;;;4.70;;
1090;SDS011;534;48.704;9.122;2023-02-28T11:41:28;5.80;;;5.30;;
1090;SDS011;534;48.704;9.122;2023-02-28T11:44:05;4.70;;;4.30;;
1090;SDS011;534;48.704;9.122;2023-02-28T11:46:43;5.20;;;4.50;;
1090;SDS011;534;48.704;9.122;2023-02-28T11:49:20;5.10;;;4.60;;
1090;SDS011;534;48.704;9.122;2023-02-28T11:51:56;5.60;;;4.90;;
1090;SDS011;534;48.704;9.122;2023-02-28T11:54:38;5.70;;;5.20;;
1090;SDS011;534;48.704;9.122;2023-02-28T11:57:21;5.80;;;5.20;;
1090;SDS011;534;48.704;9.122;2023-02-28T12:00:00;5.13;;;4.60;;
1090;SDS011;534;48.704;9.122;2023-02-28T12:02:34;5.63;;;4.47;;
1090;SDS011;534;48.704;9.122;2023-02-28T12:05:20;5.20;;;4.70;;
1090;SDS011;534;48.704;9.122;2023-02-28T12:07:57;5.00;;;4.60;;
1090;SDS011;534;48.704;9.122;2023-02-28T12:10:42;5.30;;;4.80;;
1090;SDS011;534;48.704;9.122;2023-02-28T12:13:20;5.33;;;4.77;;
1090;SDS011;534;48.704;9.122;2023-02-28T12:16:11;4.90;;;4.40;;
1090;SDS011;534;48.704;9.122;2023-02-28T12:18:53;4.83;;;4.37;;
1090;SDS011;534;48.704;9.122;2023-02-28T12:21:35;4.77;;;4.37;;
1090;SDS011;534;48.704;9.122;2023-02-28T12:24:28;5.00;;;4.50;;
1090;SDS011;534;48.704;9.122;2023-02-28T12:27:13;5.13;;;4.63;;
1090;SDS011;534;48.704;9.122;2023-02-28T12:29:44;4.87;;;4.43;;
1090;SDS011;534;48.704;9.122;2023-02-28T12:32:16;4.73;;;4.23;;
1090;SDS011;534;48.704;9.122;2023-02-28T12:34:48;5.10;;;4.57;;
1090;SDS011;534;48.704;9.122;2023-02-28T12:37:19;5.10;;;4.60;;
1090;SDS011;534;48.704;9.122;2023-02-28T12:39:56;5.30;;;4.80;;
1090;SDS011;534;48.704;9.122;2023-02-28T12:42:29;5.73;;;4.20;;
1090;SDS011;534;48.704;9.122;2023-02-28T12:45:00;4.63;;;4.23;;
1090;SDS011;534;48.704;9.122;2023-02-28T12:47:32;5.17;;;4.67;;
1090;SDS011;534;48.704;9.122;2023-02-28T12:49:59;5.60;;;5.00;;
1090;SDS011;534;48.704;9.122;2023-02-28T12:52:32;5.00;;;4.50;;
1090;SDS011;534;48.704;9.122;2023-02-28T12:55:08;4.00;;;3.60;;
1090;SDS011;534;48.704;9.122;2023-02-28T12:57:41;5.07;;;4.57;;
1090;SDS011;534;48.704;9.122;2023-02-28T13:00:14;4.53;;;4.13;;
1090;SDS011;534;48.704;9.122;2023-02-28T13:02:53;4.83;;;4.43;;
1090;SDS011;534;48.704;9.122;2023-02-28T13:05:50;5.20;;;4.53;;
1090;SDS011;534;48.704;9.122;2023-02-28T13:08:55;5.50;;;5.00;;
1090;SDS011;534;48.704;9.122;2023-02-28T13:11:28;5.13;;;4.63;;
1090;SDS011;534;48.704;9.122;2023-02-28T13:13:57;4.40;;;4.00;;
1090;SDS011;534;48.704;9.122;2023-02-28T13:16:25;4.67;;;4.27;;
1090;SDS011;534;48.704;9.122;2023-02-28T13:18:52;5.50;;;5.00;;
1090;SDS011;534;48.704;9.122;2023-02-28T13:21:41;4.87;;;4.37;;
1090;SDS011;534;48.704;9.122;2023-02-28T13:24:11;5.50;;;5.00;;
1090;SDS011;534;48.704;9.122;2023-02-28T13:27:22;4.97;;;4.47;;
1090;SDS011;534;48.704;9.122;2023-02-28T13:29:50;4.57;;;4.17;;
1090;SDS011;534;48.704;9.122;2023-02-28T13:35:12;4.40;;;4.00;;
1090;SDS011;534;48.704;9.122;2023-02-28T13:38:16;4.73;;;4.33;;
1090;SDS011;534;48.704;9.122;2023-02-28T13:40:49;4.43;;;4.03;;
1090;SDS011;534;48.704;9.122;2023-02-28T13:43:16;4.83;;;4.43;;
1090;SDS011;534;48.704;9.122;2023-02-28T13:48:37;4.50;;;4.10;;
1090;SDS011;534;48.704;9.122;2023-02-28T13:54:07;4.73;;;4.23;;
1090;SDS011;534;48.704;9.122;2023-02-28T13:57:04;4.57;;;4.03;;
1090;SDS011;534;48.704;9.122;2023-02-28T13:59:46;4.97;;;4.47;;
1090;SDS011;534;48.704;9.122;2023-02-28T14:02:28;4.20;;;3.80;;
1090;SDS011;534;48.704;9.122;2023-02-28T14:05:11;5.20;;;4.73;;
1090;SDS011;534;48.704;9.122;2023-02-28T14:07:42;5.00;;;4.60;;
1090;SDS011;534;48.704;9.122;2023-02-28T14:10:19;4.30;;;3.60;;
1090;SDS011;534;48.704;9.122;2023-02-28T14:12:53;4.40;;;4.00;;
1090;SDS011;534;48.704;9.122;2023-02-28T14:15:26;4.47;;;4.07;;
1090;SDS011;534;48.704;9.122;2023-02-28T14:18:06;4.07;;;3.77;;
1090;SDS011;534;48.704;9.122;2023-02-28T14:20:42;4.47;;;4.07;;
1090;SDS011;534;48.704;9.122;2023-02-28T14:23:12;4.20;;;3.80;;
1090;SDS011;534;48.704;9.122;2023-02-28T14:25:51;5.90;;;4.30;;
1090;SDS011;534;48.704;9.122;2023-02-28T14:28:32;4.80;;;4.37;;
1090;SDS011;534;48.704;9.122;2023-02-28T14:31:16;4.10;;;3.70;;
1090;SDS011;534;48.704;9.122;2023-02-28T14:33:53;4.80;;;4.30;;
1090;SDS011;534;48.704;9.122;2023-02-28T14:36:31;4.30;;;3.90;;
1090;SDS011;534;48.704;9.122;2023-02-28T14:39:00;4.50;;;4.10;;
1090;SDS011;534;48.704;9.122;2023-02-28T14:41:31;4.53;;;4.13;;
1090;SDS011;534;48.704;9.122;2023-02-28T14:44:12;4.53;;;4.13;;
1090;SDS011;534;48.704;9.122;2023-02-28T14:46:40;4.30;;;3.90;;
1090;SDS011;534;48.704;9.122;2023-02-28T14:49:12;4.83;;;4.33;;
1090;SDS011;534;48.704;9.122;2023-02-28T14:51:43;5.93;;;4.43;;
1090;SDS011;534;48.704;9.122;2023-02-28T14:54:13;5.53;;;4.60;;
1090;SDS011;534;48.704;9.122;2023-02-28T14:56:42;4.07;;;3.67;;
1090;SDS011;534;48.704;9.122;2023-02-28T14:59:24;4.60;;;4.20;;
1090;SDS011;534;48.704;9.122;2023-02-28T15:04:42;3.80;;;3.40;;
1090;SDS011;534;48.704;9.122;2023-02-28T15:07:09;4.03;;;3.63;;
1090;SDS011;534;48.704;9.122;2023-02-28T15:09:37;4.40;;;4.00;;
1090;SDS011;534;48.704;9.122;2023-02-28T15:12:03;4.63;;;4.23;;
1090;SDS011;534;48.704;9.122;2023-02-28T15:14:32;3.80;;;3.50;;
1090;SDS011;534;48.704;9.122;2023-02-28T15:17:05;4.90;;;4.50;;
1090;SDS011;534;48.704;9.122;2023-02-28T15:19:36;5.20;;;4.40;;
1090;SDS011;534;48.704;9.122;2023-02-28T15:22:08;4.10;;;3.77;;
1090;SDS011;534;48.704;9.122;2023-02-28T15:24:40;4.30;;;3.90;;
1090;SDS011;534;48.704;9.122;2023-02-28T15:27:11;4.90;;;4.07;;
1090;SDS011;534;48.704;9.122;2023-02-28T15:29:44;4.20;;;3.80;;
1090;SDS011;534;48.704;9.122;2023-02-28T15:32:24;4.40;;;4.00;;
1090;SDS011;534;48.704;9.122;2023-02-28T15:34:53;4.50;;;4.10;;
1090;SDS011;534;48.704;9.122;2023-02-28T15:37:25;4.47;;;4.07;;
1090;SDS011;534;48.704;9.122;2023-02-28T15:39:56;4.63;;;4.23;;
1090;SDS011;534;48.704;9.122;2023-02-28T15:42:27;4.30;;;3.90;;
1090;SDS011;534;48.704;9.122;2023-02-28T15:44:57;4.40;;;4.00;;
1090;SDS011;534;48.704;9.122;2023-02-28T15:47:25;4.37;;;3.97;;
1090;SDS011;534;48.704;9.122;2023-02-28T15:49:54;4.90;;;4.50;;
1090;SDS011;534;48.704;9.122;2023-02-28T15:52:26;4.50;;;4.10;;
1090;SDS011;534;48.704;9.122;2023-02-28T15:54:56;4.70;;;3.90;;
1090;SDS011;534;48.704;9.122;2023-02-28T15:57:25;4.93;;;4.43;;
1090;SDS011;534;48.704;9.122;2023-02-28T15:59:54;4.30;;;3.90;;
1090;SDS011;534;48.704;9.122;2023-02-28T16:02:31;5.57;;;4.97;;
1090;SDS011;534;48.704;9.122;2023-02-28T16:05:13;5.17;;;4.60;;
1090;SDS011;534;48.704;9.122;2023-02-28T16:07:50;5.23;;;4.73;;
1090;SDS011;534;48.704;9.122;2023-02-28T16:10:16;5.00;;;4.50;;
1090;SDS011;534;48.704;9.122;2023-02-28T16:12:43;5.30;;;4.80;;
1090;SDS011;534;48.704;9.122;2023-02-28T16:15:17;4.80;;;4.30;;
1090;SDS011;534;48.704;9.122;2023-02-28T16:17:46;5.40;;;4.90;;
1090;SDS011;534;48.704;9.122;2023-02-28T16:20:15;5.80;;;5.30;;
1090;SDS011;534;48.704;9.122;2023-02-28T16:22:42;5.17;;;4.67;;
1090;SDS011;534;48.704;9.122;2023-02-28T16:25:11;4.30;;;3.90;;
1090;SDS011;534;48.704;9.122;2023-02-28T16:27:38;5.07;;;4.60;;
1090;SDS011;534;48.704;9.122;2023-02-28T16:30:06;7.63;;;5.17;;
1090;SDS011;534;48.704;9.122;2023-02-28T16:32:39;6.80;;;5.00;;
1090;SDS011;534;48.704;9.122;2023-02-28T16:35:10;5.50;;;5.00;;
1090;SDS011;534;48.704;9.122;2023-02-28T16:37:38;4.67;;;4.27;;
1090;SDS011;534;48.704;9.122;2023-02-28T16:40:06;5.67;;;5.07;;
1090;SDS011;534;48.704;9.122;2023-02-28T16:42:39;5.43;;;4.93;;
1090;SDS011;534;48.704;9.122;2023-02-28T16:45:09;5.67;;;5.07;;
1090;SDS011;534;48.704;9.122;2023-02-28T16:47:42;6.03;;;4.57;;
1090;SDS011;534;48.704;9.122;2023-02-28T16:50:13;4.50;;;3.83;;
1090;SDS011;534;48.704;9.122;2023-02-28T16:52:42;5.30;;;4.77;;
1090;SDS011;534;48.704;9.122;2023-02-28T16:55:09;5.90;;;5.37;;
1090;SDS011;534;48.704;9.122;2023-02-28T16:57:36;7.13;;;6.33;;
1090;SDS011;534;48.704;9.122;2023-02-28T17:00:03;6.47;;;5.87;;
1090;SDS011;534;48.704;9.122;2023-02-28T17:02:33;7.87;;;7.07;;
1090;SDS011;534;48.704;9.122;2023-02-28T17:05:00;6.37;;;5.77;;
1090;SDS011;534;48.704;9.122;2023-02-28T17:07:28;6.20;;;5.60;;
1090;SDS011;534;48.704;9.122;2023-02-28T17:09:55;6.27;;;5.67;;
1090;SDS011;534;48.704;9.122;2023-02-28T17:12:22;6.10;;;5.30;;
1090;SDS011;534;48.704;9.122;2023-02-28T17:14:49;5.00;;;4.60;;
1090;SDS011;534;48.704;9.122;2023-02-28T17:17:16;6.67;;;6.07;;
1090;SDS011;534;48.704;9.122;2023-02-28T17:19:45;6.90;;;5.33;;
1090;SDS011;534;48.704;9.122;2023-02-28T17:22:12;6.50;;;5.43;;
1090;SDS011;534;48.704;9.122;2023-02-28T17:24:40;5.73;;;4.67;;
1090;SDS011;534;48.704;9.122;2023-02-28T17:27:09;5.03;;;4.53;;
1090;SDS011;534;48.704;9.122;2023-02-28T17:29:37;5.83;;;5.23;;
1090;SDS011;534;48.704;9.122;2023-02-28T17:32:04;5.63;;;5.13;;
1090;SDS011;534;48.704;9.122;2023-02-28T17:34:30;6.30;;;5.70;;
1090;SDS011;534;48.704;9.122;2023-02-28T17:36:57;6.77;;;4.90;;
1090;SDS011;534;48.704;9.122;2023-02-28T17:39:24;6.13;;;5.30;;
1090;SDS011;534;48.704;9.122;2023-02-28T17:41:52;6.63;;;6.03;;
1090;SDS011;534;48.704;9.122;2023-02-28T17:44:19;6.87;;;6.20;;
1090;SDS011;534;48.704;9.122;2023-02-28T17:46:46;6.57;;;5.97;;
1090;SDS011;534;48.704;9.122;2023-02-28T17:49:14;6.07;;;5.53;;
1090;SDS011;534;48.704;9.122;2023-02-28T17:51:41;5.93;;;5.40;;
1090;SDS011;534;48.704;9.122;2023-02-28T17:54:08;6.37;;;5.27;;
1090;SDS011;534;48.704;9.122;2023-02-28T17:56:35;6.87;;;6.17;;
1090;SDS011;534;48.704;9.122;2023-02-28T17:59:03;7.47;;;6.80;;
1090;SDS011;534;48.704;9.122;2023-02-28T18:01:30;5.93;;;5.43;;
1090;SDS011;534;48.704;9.122;2023-02-28T18:03:56;6.73;;;6.10;;
1090;SDS011;534;48.704;9.122;2023-02-28T18:06:24;8.10;;;6.60;;
1090;SDS011;534;48.704;9.122;2023-02-28T18:08:53;7.60;;;6.80;;
1090;SDS011;534;48.704;9.122;2023-02-28T18:11:20;8.50;;;7.70;;
1090;SDS011;534;48.704;9.122;2023-02-28T18:13:49;7.77;;;7.00;;
1090;SDS011;534;48.704;9.122;2023-02-28T18:16:19;6.27;;;5.50;;
1090;SDS011;534;48.704;9.122;2023-02-28T18:18:47;6.77;;;6.07;;
1090;SDS011;534;48.704;9.122;2023-02-28T18:21:14;6.43;;;5.77;;
1090;SDS011;534;48.704;9.122;2023-02-28T18:23:42;6.20;;;5.70;;
1090;SDS011;534;48.704;9.122;2023-02-28T18:26:12;5.70;;;5.10;;
1090;SDS011;534;48.704;9.122;2023-02-28T18:28:40;5.93;;;5.33;;
1090;SDS011;534;48.704;9.122;2023-02-28T18:31:08;7.03;;;6.33;;
1090;SDS011;534;48.704;9.122;2023-02-28T18:33:37;6.73;;;6.13;;
1090;SDS011;534;48.704;9.122;2023-02-28T18:36:04;7.70;;;7.00;;
1090;SDS011;534;48.704;9.122;2023-02-28T18:38:31;7.17;;;6.47;;
1090;SDS011;534;48.704;9.122;2023-02-28T18:40:58;6.20;;;5.60;;
1090;SDS011;534;48.704;9.122;2023-02-28T18:43:27;7.33;;;6.73;;
1090;SDS011;534;48.704;9.122;2023-02-28T18:45:55;8.10;;;7.40;;
1090;SDS011;534;48.704;9.122;2023-02-28T18:48:22;6.37;;;5.70;;
1090;SDS011;534;48.704;9.122;2023-02-28T18:50:50;7.80;;;7.10;;
1090;SDS011;534;48.704;9.122;2023-02-28T18:53:17;6.87;;;6.17;;
1090;SDS011;534;48.704;9.122;2023-02-28T18:55:44;7.70;;;7.00;;
1090;SDS011;534;48.704;9.122;2023-02-28T18:58:11;6.30;;;5.70;;
1090;SDS011;534;48.704;9.122;2023-02-28T19:00:38;5.40;;;4.90;;
1090;SDS011;534;48.704;9.122;2023-02-28T19:03:05;6.20;;;5.60;;
1090;SDS011;534;48.704;9.122;2023-02-28T19:05:32;5.37;;;4.87;;
1090;SDS011;534;48.704;9.122;2023-02-28T19:08:00;5.90;;;5.30;;
1090;SDS011;534;48.704;9.122;2023-02-28T19:10:27;5.83;;;5.27;;
1090;SDS011;534;48.704;9.122;2023-02-28T19:12:54;5.43;;;4.83;;
1090;SDS011;534;48.704;9.122;2023-02-28T19:15:21;5.80;;;5.03;;
1090;SDS011;534;48.704;9.122;2023-02-28T19:17:47;7.23;;;6.10;;
1090;SDS011;534;48.704;9.122;2023-02-28T19:20:15;6.30;;;5.70;;
1090;SDS011;534;48.704;9.122;2023-02-28T19:22:42;8.30;;;6.03;;
1090;SDS011;534;48.704;9.122;2023-02-28T19:25:10;6.20;;;5.37;;
1090;SDS011;534;48.704;9.122;2023-02-28T19:27:37;6.33;;;5.73;;
1090;SDS011;534;48.704;9.122;2023-02-28T19:30:04;8.10;;;5.07;;
1090;SDS011;534;48.704;9.122;2023-02-28T19:32:31;6.23;;;5.63;;
1090;SDS011;534;48.704;9.122;2023-02-28T19:34:58;6.43;;;5.80;;
1090;SDS011;534;48.704;9.122;2023-02-28T19:37:26;6.23;;;5.63;;
1090;SDS011;534;48.704;9.122;2023-02-28T19:39:53;5.30;;;4.83;;
1090;SDS011;534;48.704;9.122;2023-02-28T19:42:22;6.87;;;6.07;;
1090;SDS011;534;48.704;9.122;2023-02-28T19:44:52;6.43;;;5.80;;
1090;SDS011;534;48.704;9.122;2023-02-28T19:47:19;6.57;;;5.97;;
1090;SDS011;534;48.704;9.122;2023-02-28T19:49:45;5.87;;;5.33;;
1090;SDS011;534;48.704;9.122;2023-02-28T19:52:12;6.70;;;6.10;;
1090;SDS011;534;48.704;9.122;2023-02-28T19:54:39;6.43;;;5.93;;
1090;SDS011;534;48.704;9.122;2023-02-28T19:57:06;6.83;;;6.13;;
1090;SDS011;534;48.704;9.122;2023-02-28T19:59:34;5.43;;;4.90;;
1090;SDS011;534;48.704;9.122;2023-02-28T20:02:00;6.67;;;6.00;;